createdAt,value
2018-05-29T00:01:01.983Z,19.80
2018-05-29T00:03:29.608Z,19.90
2018-05-29T00:05:57.239Z,19.80
2018-05-29T00:08:24.871Z,19.80
2018-05-29T00:10:53.267Z,19.70
2018-05-29T00:13:20.900Z,19.70
2018-05-29T00:15:48.528Z,19.70
2018-05-29T00:18:16.159Z,19.70
2018-05-29T00:20:44.551Z,19.80
2018-05-29T00:23:12.183Z,19.80
2018-05-29T00:25:39.822Z,19.70
2018-05-29T00:28:07.450Z,19.70
2018-05-29T00:30:35.350Z,19.60
2018-05-29T00:33:02.984Z,19.50
2018-05-29T00:35:30.622Z,19.40
2018-05-29T00:37:58.258Z,19.40
2018-05-29T00:40:25.968Z,19.40
2018-05-29T00:42:53.599Z,19.50
2018-05-29T00:45:21.223Z,19.70
2018-05-29T00:47:48.850Z,19.70
2018-05-29T00:50:16.483Z,19.60
2018-05-29T00:52:44.122Z,19.60
2018-05-29T00:55:23.568Z,19.60
2018-05-29T00:57:51.211Z,19.70
2018-05-29T01:00:19.351Z,19.70
2018-05-29T01:02:47.003Z,19.60
2018-05-29T01:05:14.636Z,19.60
2018-05-29T01:07:42.264Z,19.40
2018-05-29T01:10:09.899Z,19.40
2018-05-29T01:12:37.531Z,19.30
2018-05-29T01:15:05.155Z,19.30
2018-05-29T01:17:32.787Z,19.40
2018-05-29T01:20:05.199Z,19.40
2018-05-29T01:22:32.838Z,19.30
2018-05-29T01:25:00.472Z,19.20
2018-05-29T01:27:28.098Z,19.30
2018-05-29T01:29:55.736Z,19.30
2018-05-29T01:32:23.364Z,19.10
2018-05-29T01:34:51.025Z,19.00
2018-05-29T01:37:18.652Z,18.90
2018-05-29T01:39:46.283Z,18.90
2018-05-29T01:42:13.919Z,18.80
2018-05-29T01:44:41.547Z,18.70
2018-05-29T01:47:09.190Z,18.80
2018-05-29T01:49:36.825Z,18.90
2018-05-29T01:52:04.460Z,18.90
2018-05-29T01:54:35.606Z,18.90
2018-05-29T01:57:03.238Z,18.70
2018-05-29T01:59:30.884Z,18.60
2018-05-29T02:01:58.514Z,18.70
2018-05-29T02:04:26.349Z,18.80
2018-05-29T02:06:53.922Z,18.80
2018-05-29T02:09:21.547Z,18.80
2018-05-29T02:11:49.175Z,18.70
2018-05-29T02:14:16.823Z,18.80
2018-05-29T02:16:44.460Z,18.60
2018-05-29T02:19:12.084Z,18.60
2018-05-29T02:21:40.042Z,18.70
2018-05-29T02:24:07.672Z,18.60
2018-05-29T02:26:35.308Z,18.40
2018-05-29T02:29:02.946Z,18.40
2018-05-29T02:31:31.339Z,18.50
2018-05-29T02:33:58.978Z,18.50
2018-05-29T02:36:26.604Z,18.50
2018-05-29T02:38:54.235Z,18.50
2018-05-29T02:41:21.858Z,18.40
2018-05-29T02:43:49.489Z,18.20
2018-05-29T02:46:17.120Z,18.20
2018-05-29T02:48:44.756Z,18.10
2018-05-29T02:51:12.392Z,18.10
2018-05-29T02:53:40.026Z,18.20
2018-05-29T02:56:07.652Z,18.10
2018-05-29T02:58:35.285Z,18.10
2018-05-29T03:01:02.915Z,18.10
2018-05-29T03:03:30.544Z,18.00
2018-05-29T03:05:58.180Z,18.10
2018-05-29T03:08:25.811Z,18.00
2018-05-29T03:10:53.695Z,18.00
2018-05-29T03:13:21.335Z,17.90
2018-05-29T03:15:48.971Z,18.00
2018-05-29T03:18:16.613Z,18.00
2018-05-29T03:20:44.236Z,18.10
2018-05-29T03:23:11.859Z,18.20
2018-05-29T03:25:39.491Z,18.10
2018-05-29T03:28:07.890Z,18.10
2018-05-29T03:30:35.529Z,18.10
2018-05-29T03:33:03.167Z,18.00
2018-05-29T03:35:30.811Z,17.90
2018-05-29T03:37:58.439Z,17.90
2018-05-29T03:40:26.842Z,18.10
2018-05-29T03:42:54.475Z,18.10
2018-05-29T03:45:22.111Z,18.10
2018-05-29T03:47:49.746Z,17.90
2018-05-29T03:50:17.387Z,17.90
2018-05-29T03:52:45.784Z,17.90
2018-05-29T03:55:14.188Z,17.90
2018-05-29T03:57:49.976Z,17.90
2018-05-29T04:00:17.736Z,17.80
2018-05-29T04:02:45.598Z,17.90
2018-05-29T04:05:15.639Z,17.90
2018-05-29T04:07:43.259Z,17.90
2018-05-29T04:10:10.898Z,17.70
2018-05-29T04:12:38.537Z,17.80
2018-05-29T04:15:06.167Z,17.80
2018-05-29T04:17:33.814Z,18.00
2018-05-29T04:20:01.436Z,18.10
2018-05-29T04:22:29.080Z,18.20
2018-05-29T04:24:56.703Z,18.20
2018-05-29T04:27:24.738Z,18.20
2018-05-29T04:29:52.424Z,18.20
2018-05-29T04:32:20.060Z,18.20
2018-05-29T04:34:47.692Z,18.20
2018-05-29T04:37:15.323Z,18.30
2018-05-29T04:39:42.962Z,18.30
2018-05-29T04:42:10.589Z,18.30
2018-05-29T04:44:38.219Z,18.40
2018-05-29T04:47:05.937Z,18.30
2018-05-29T04:49:33.526Z,18.20
2018-05-29T04:52:01.122Z,18.20
2018-05-29T04:54:28.748Z,18.20
2018-05-29T04:56:56.380Z,18.20
2018-05-29T04:59:24.008Z,18.20
2018-05-29T05:01:51.639Z,18.10
2018-05-29T05:04:19.286Z,18.20
2018-05-29T05:06:46.911Z,18.30
2018-05-29T05:09:14.535Z,18.30
2018-05-29T05:11:42.167Z,18.40
2018-05-29T05:14:09.796Z,18.40
2018-05-29T05:16:37.430Z,18.40
2018-05-29T05:19:05.063Z,18.50
2018-05-29T05:21:33.473Z,18.60
2018-05-29T05:24:01.108Z,18.60
2018-05-29T05:26:28.739Z,18.70
2018-05-29T05:28:56.375Z,18.70
2018-05-29T05:31:24.008Z,18.70
2018-05-29T05:33:52.409Z,18.70
2018-05-29T05:36:20.044Z,18.70
2018-05-29T05:38:47.667Z,18.80
2018-05-29T05:41:15.302Z,18.80
2018-05-29T05:43:42.943Z,18.90
2018-05-29T05:46:10.564Z,19.00
2018-05-29T05:48:38.256Z,19.10
2018-05-29T05:51:05.919Z,19.10
2018-05-29T05:53:33.526Z,19.10
2018-05-29T05:56:01.163Z,19.20
2018-05-29T05:58:28.853Z,19.40
2018-05-29T06:00:56.428Z,19.40
2018-05-29T06:03:24.055Z,19.40
2018-05-29T06:05:51.692Z,19.50
2018-05-29T06:08:19.319Z,19.50
2018-05-29T06:10:47.715Z,19.80
2018-05-29T06:13:15.345Z,19.70
2018-05-29T06:15:42.970Z,19.90
2018-05-29T06:18:10.610Z,19.90
2018-05-29T20:40:21.704Z,20.20
2018-05-29T20:42:49.328Z,20.20
2018-05-29T20:45:16.955Z,20.20
2018-05-29T20:47:44.576Z,20.20
2018-05-29T20:50:18.306Z,20.20
2018-05-29T20:52:45.931Z,20.20
2018-05-29T20:55:13.572Z,20.10
2018-05-29T20:57:41.970Z,20.20
2018-05-29T21:02:48.411Z,20.30
2018-05-29T21:05:16.036Z,20.10
2018-05-29T21:07:43.663Z,20.20
2018-05-29T21:10:11.287Z,20.10
2018-05-29T21:12:38.927Z,20.20
2018-05-29T21:15:06.560Z,20.20
2018-05-29T21:17:41.980Z,20.20
2018-05-29T21:20:09.622Z,20.20
2018-05-29T21:22:37.244Z,20.20
2018-05-29T21:25:05.260Z,20.30
2018-05-29T21:27:32.901Z,20.20
2018-05-29T21:30:00.528Z,20.20
2018-05-29T21:32:28.157Z,20.20
2018-05-29T21:34:56.123Z,20.30
2018-05-29T21:37:23.759Z,20.20
2018-05-29T21:39:51.387Z,20.20
2018-05-29T21:42:19.021Z,20.10
2018-05-29T21:44:46.644Z,20.20
2018-05-29T21:47:14.271Z,20.10
2018-05-29T21:49:58.571Z,20.10
2018-05-29T21:52:26.967Z,20.10
2018-05-29T21:54:54.598Z,20.10
2018-05-29T21:57:22.223Z,20.10
2018-05-29T21:59:49.853Z,20.00
2018-05-29T22:02:17.483Z,20.00
2018-05-29T22:04:45.109Z,19.90
2018-05-29T22:07:12.743Z,19.90
2018-05-29T22:09:41.143Z,19.80
2018-05-29T22:12:08.772Z,19.80
2018-05-29T22:14:36.407Z,19.80
2018-05-29T22:17:05.955Z,19.80
2018-05-29T22:19:33.588Z,19.70
2018-05-29T22:22:01.215Z,19.60
2018-05-29T22:24:28.851Z,19.60
2018-05-29T22:26:56.484Z,19.60
2018-05-29T22:29:24.127Z,19.60
2018-05-29T22:31:51.761Z,19.50
2018-05-29T22:34:19.400Z,19.50
2018-05-29T22:36:47.042Z,19.40
2018-05-29T22:39:14.681Z,19.50
2018-05-29T22:41:42.323Z,19.50
2018-05-29T22:44:09.952Z,19.40
2018-05-29T22:46:37.575Z,19.40
2018-05-29T22:49:05.219Z,19.50
2018-05-29T22:51:32.860Z,19.40
2018-05-29T22:54:00.493Z,19.20
2018-05-29T22:56:28.135Z,19.20
2018-05-29T22:58:55.767Z,19.20
2018-05-29T23:01:23.395Z,19.20
2018-05-29T23:03:51.022Z,19.30
2018-05-29T23:06:18.667Z,19.30
2018-05-29T23:08:46.327Z,19.30
2018-05-29T23:11:13.951Z,19.30
2018-05-29T23:13:41.579Z,19.20
2018-05-29T23:16:09.202Z,19.10
2018-05-29T23:18:36.851Z,19.10
2018-05-29T23:21:04.484Z,19.20
2018-05-29T23:23:32.127Z,19.20
2018-05-29T23:25:59.758Z,19.20
2018-05-29T23:28:27.407Z,19.30
2018-05-29T23:30:55.047Z,19.20
2018-05-29T23:33:27.910Z,19.20
2018-05-29T23:35:55.543Z,19.30
2018-05-29T23:38:23.180Z,19.30
2018-05-29T23:40:50.818Z,19.20
2018-05-29T23:43:18.462Z,19.20
2018-05-29T23:45:46.096Z,19.20
2018-05-29T23:48:13.728Z,19.20
2018-05-29T23:50:41.390Z,19.20
2018-05-29T23:53:09.038Z,19.30
2018-05-29T23:55:36.671Z,19.30
2018-05-29T23:58:04.331Z,19.20
